Time;durP1;ratioP1;P1;durP2;ratioP2;P2;SDS_P1;SDS_P2;PMS_P1;PMS_P2;Temp;Humidity;BMP_temperature;BMP_pressure;BME280_temperature;BME280_humidity;BME280_pressure;Samples;Min_cycle;Max_cycle;Signal;HPM_P1;HPM_P2
2022/02/19 00:00:13;;;;;;;21.23;2.80;;;8.00;95.00;;;;;;4989426;28;20031;-45
2022/02/19 00:02:39;;;;;;;11.30;3.28;;;8.00;95.40;;;;;;4988900;28;20049;-44
2022/02/19 00:05:05;;;;;;;13.90;3.33;;;8.00;95.80;;;;;;4988883;28;20113;-48
2022/02/19 00:07:31;;;;;;;10.27;3.05;;;7.90;95.40;;;;;;4988513;28;20031;-47
2022/02/19 00:09:57;;;;;;;13.57;3.28;;;8.00;95.10;;;;;;4990154;28;20034;-48
2022/02/19 00:12:23;;;;;;;12.20;2.45;;;8.00;95.30;;;;;;4990014;28;20030;-45
2022/02/19 00:14:49;;;;;;;14.00;3.65;;;8.00;95.60;;;;;;4989812;28;20026;-45
2022/02/19 00:17:14;;;;;;;16.80;3.15;;;8.00;95.70;;;;;;4989368;28;20536;-45
2022/02/19 00:19:40;;;;;;;12.40;2.35;;;7.90;95.70;;;;;;4989227;28;20057;-48
2022/02/19 00:22:05;;;;;;;16.48;2.83;;;7.90;95.90;;;;;;4988982;28;20479;-47
2022/02/19 00:24:31;;;;;;;14.98;3.33;;;7.90;95.40;;;;;;4989409;28;20041;-48
2022/02/19 00:26:57;;;;;;;10.70;2.17;;;7.90;95.50;;;;;;4989991;28;20137;-46
2022/02/19 00:29:23;;;;;;;12.80;3.35;;;7.90;95.70;;;;;;4989985;28;20026;-47
2022/02/19 00:31:49;;;;;;;14.73;2.78;;;7.90;95.20;;;;;;4988930;28;20406;-47
2022/02/19 00:34:15;;;;;;;12.85;3.15;;;7.90;95.20;;;;;;4987887;28;20038;-46
2022/02/19 00:36:41;;;;;;;12.35;3.53;;;7.80;94.80;;;;;;4989075;28;20039;-46
2022/02/19 00:39:07;;;;;;;9.05;2.67;;;7.90;94.60;;;;;;4989942;28;20037;-45
2022/02/19 00:41:32;;;;;;;14.60;2.47;;;7.90;94.60;;;;;;4989575;28;20152;-45
2022/02/19 00:43:58;;;;;;;15.65;2.88;;;7.90;94.50;;;;;;4987131;28;20058;-44
2022/02/19 00:46:24;;;;;;;11.18;2.67;;;7.90;94.40;;;;;;4991230;28;20033;-46
2022/02/19 00:48:50;;;;;;;20.27;4.10;;;7.90;94.50;;;;;;4991657;28;20117;-47
2022/02/19 00:51:16;;;;;;;11.13;2.58;;;7.90;94.40;;;;;;4991724;28;20065;-51
2022/02/19 00:53:42;;;;;;;12.13;3.05;;;7.90;94.70;;;;;;4991072;28;20026;-48
2022/02/19 00:56:09;;;;;;;18.08;2.67;;;7.90;94.90;;;;;;4992534;28;20026;-46
2022/02/19 00:58:36;;;;;;;9.50;2.40;;;7.90;94.90;;;;;;5016178;22;20049;-43
2022/02/19 01:01:02;;;;;;;9.43;2.85;;;7.80;94.80;;;;;;4992828;28;20066;-46
2022/02/19 01:03:28;;;;;;;15.05;2.65;;;7.90;95.00;;;;;;4992384;28;20125;-50
2022/02/19 01:05:54;;;;;;;16.35;4.57;;;7.90;95.10;;;;;;4992924;28;20022;-46
2022/02/19 01:08:19;;;;;;;18.52;3.50;;;7.90;95.20;;;;;;4992605;28;20119;-44
2022/02/19 01:10:45;;;;;;;9.90;3.10;;;7.90;95.20;;;;;;4975139;28;20022;-45
2022/02/19 01:13:10;;;;;;;11.82;2.80;;;7.90;95.10;;;;;;4974866;28;20058;-45
2022/02/19 01:15:36;;;;;;;15.48;3.80;;;7.90;95.30;;;;;;4992768;28;20030;-45
2022/02/19 01:18:01;;;;;;;18.23;3.03;;;7.90;95.20;;;;;;4992416;28;20483;-39
2022/02/19 01:20:27;;;;;;;13.02;3.45;;;7.80;95.00;;;;;;4992402;28;20033;-44
2022/02/19 01:22:52;;;;;;;10.40;2.22;;;7.80;94.90;;;;;;4992320;28;20034;-44
2022/02/19 01:25:18;;;;;;;9.65;2.50;;;7.80;94.80;;;;;;4975190;28;20022;-43
2022/02/19 01:27:43;;;;;;;15.45;3.67;;;7.80;94.70;;;;;;4992362;28;20058;-48
2022/02/19 01:30:09;;;;;;;16.27;3.05;;;7.80;94.70;;;;;;4992342;28;20066;-44
2022/02/19 01:32:35;;;;;;;12.75;3.40;;;7.80;94.40;;;;;;4992451;28;20062;-48
2022/02/19 01:35:01;;;;;;;6.80;2.15;;;7.80;94.00;;;;;;4992029;28;20482;-44
2022/02/19 01:37:26;;;;;;;17.38;3.33;;;7.80;93.80;;;;;;4992054;28;20394;-44
2022/02/19 01:39:52;;;;;;;10.07;2.28;;;7.80;94.20;;;;;;4992279;28;20514;-44
2022/02/19 01:42:18;;;;;;;8.48;2.40;;;7.80;94.20;;;;;;4993003;28;20173;-45
2022/02/19 01:44:46;;;;;;;12.18;2.58;;;7.70;94.40;;;;;;4996187;28;20026;-45
2022/02/19 01:47:12;;;;;;;9.63;2.47;;;7.70;94.70;;;;;;4996136;28;20022;-44
2022/02/19 01:49:37;;;;;;;13.77;2.92;;;7.60;94.60;;;;;;4996324;28;20034;-46
2022/02/19 01:52:06;;;;;;;12.27;2.63;;;7.50;94.60;;;;;;4996198;28;20019;-39
2022/02/19 01:54:32;;;;;;;11.25;4.47;;;7.50;94.80;;;;;;4996199;28;20026;-48
2022/02/19 01:57:02;;;;;;;13.98;3.70;;;7.50;95.00;;;;;;4995973;28;20521;-47
2022/02/19 01:59:28;;;;;;;19.33;3.22;;;7.50;95.10;;;;;;4995903;28;20481;-46
2022/02/19 02:01:53;;;;;;;8.80;3.00;;;7.60;94.60;;;;;;4996138;28;20054;-43
2022/02/19 02:04:19;;;;;;;14.20;2.10;;;7.60;94.70;;;;;;4995564;28;20046;-47
2022/02/19 02:06:46;;;;;;;9.82;1.92;;;7.60;94.80;;;;;;4995780;28;20023;-43
2022/02/19 02:09:14;;;;;;;10.40;2.42;;;7.60;94.90;;;;;;4995814;28;20422;-47
2022/02/19 02:11:40;;;;;;;10.82;2.17;;;7.60;94.90;;;;;;4995819;28;20089;-46
2022/02/19 02:14:07;;;;;;;12.52;2.83;;;7.60;94.70;;;;;;4995405;28;20026;-43
2022/02/19 02:16:38;;;;;;;8.88;2.83;;;7.60;95.00;;;;;;4995794;28;20494;-46
2022/02/19 02:19:04;;;;;;;10.88;3.25;;;7.60;94.80;;;;;;4996328;28;20038;-45
2022/02/19 02:21:30;;;;;;;8.75;2.38;;;7.50;94.30;;;;;;4997582;28;20077;-45
2022/02/19 02:23:56;;;;;;;9.60;2.45;;;7.50;94.50;;;;;;4995619;28;20406;-41
2022/02/19 02:26:23;;;;;;;7.53;1.90;;;7.50;94.20;;;;;;4995666;28;20022;-46
2022/02/19 02:28:49;;;;;;;21.15;3.78;;;7.40;94.80;;;;;;4995667;28;20138;-44
2022/02/19 02:31:15;;;;;;;9.05;2.25;;;7.40;94.80;;;;;;4995720;28;20034;-44
2022/02/19 02:33:41;;;;;;;22.23;4.28;;;7.30;95.00;;;;;;4995242;28;20026;-45
2022/02/19 02:36:07;;;;;;;12.18;1.92;;;7.40;95.10;;;;;;4978185;28;20080;-45
2022/02/19 02:38:32;;;;;;;11.18;2.75;;;7.30;95.10;;;;;;4994840;28;20105;-46
2022/02/19 02:40:59;;;;;;;9.85;2.15;;;7.30;95.00;;;;;;4995223;28;20027;-44
2022/02/19 02:43:25;;;;;;;8.75;2.33;;;7.40;94.80;;;;;;4994958;28;20395;-43
2022/02/19 02:45:50;;;;;;;11.25;2.35;;;7.40;94.60;;;;;;4995461;28;20019;-44
2022/02/19 02:48:16;;;;;;;7.97;2.00;;;7.40;94.80;;;;;;4995137;28;20028;-44
2022/02/19 02:50:42;;;;;;;16.02;2.42;;;7.40;94.70;;;;;;4995214;28;20498;-45
2022/02/19 02:53:08;;;;;;;13.90;2.42;;;7.40;95.00;;;;;;4994575;28;20026;-45
2022/02/19 02:55:33;;;;;;;9.52;2.42;;;7.40;94.80;;;;;;4994946;28;20085;-50
2022/02/19 02:57:59;;;;;;;9.48;2.08;;;7.30;94.70;;;;;;4994885;28;20034;-45
2022/02/19 03:00:24;;;;;;;9.98;2.47;;;7.30;94.40;;;;;;4995190;28;20053;-45
2022/02/19 03:02:50;;;;;;;11.30;2.95;;;7.30;94.80;;;;;;4994785;28;20026;-45
2022/02/19 03:05:15;;;;;;;9.38;2.15;;;7.20;94.80;;;;;;4994800;28;20022;-40
2022/02/19 03:07:41;;;;;;;10.48;2.75;;;7.20;94.50;;;;;;4994804;28;20033;-47
2022/02/19 03:10:07;;;;;;;9.15;3.13;;;7.20;94.70;;;;;;4994972;28;20109;-41
2022/02/19 03:12:33;;;;;;;12.18;3.03;;;7.20;94.80;;;;;;4994666;28;20020;-40
2022/02/19 03:14:58;;;;;;;8.70;3.00;;;7.30;95.20;;;;;;4994565;28;20417;-47
2022/02/19 03:17:24;;;;;;;12.20;2.08;;;7.20;95.20;;;;;;4994606;28;20026;-44
2022/02/19 03:19:50;;;;;;;9.75;2.20;;;7.30;95.60;;;;;;4994585;28;20022;-44
2022/02/19 03:22:16;;;;;;;8.45;2.03;;;7.30;96.00;;;;;;4994534;28;20065;-46
2022/02/19 03:24:42;;;;;;;9.48;2.45;;;7.30;96.30;;;;;;4994362;28;20037;-46
2022/02/19 03:27:08;;;;;;;9.90;2.80;;;7.30;96.50;;;;;;4994555;28;20061;-47
2022/02/19 03:29:35;;;;;;;14.50;4.70;;;7.30;96.70;;;;;;4994391;28;20026;-42
2022/02/19 03:32:01;;;;;;;6.75;1.92;;;7.20;96.70;;;;;;4994358;28;20022;-42
2022/02/19 03:34:27;;;;;;;17.90;2.90;;;7.20;96.90;;;;;;4994098;28;20034;-49
2022/02/19 03:36:52;;;;;;;6.72;2.30;;;7.20;97.10;;;;;;4976403;28;20025;-45
2022/02/19 03:39:18;;;;;;;7.70;2.15;;;7.20;97.10;;;;;;4994587;28;20533;-45
2022/02/19 03:41:43;;;;;;;13.07;3.35;;;7.10;97.30;;;;;;4977059;28;20479;-42
2022/02/19 03:44:09;;;;;;;14.55;3.35;;;7.10;97.40;;;;;;4993726;28;20026;-46
2022/02/19 03:46:37;;;;;;;14.30;2.63;;;7.10;97.60;;;;;;4994185;28;20084;-46
2022/02/19 03:49:04;;;;;;;16.63;2.70;;;7.00;98.00;;;;;;4993991;28;20030;-45
2022/02/19 03:51:30;;;;;;;20.00;2.20;;;7.00;97.70;;;;;;4994142;28;20064;-48
2022/02/19 03:53:56;;;;;;;14.10;4.07;;;7.00;97.40;;;;;;4993481;28;20062;-39
2022/02/19 03:56:21;;;;;;;13.63;2.70;;;7.00;97.60;;;;;;4993941;28;20038;-48
2022/02/19 03:58:47;;;;;;;13.95;3.08;;;6.90;97.40;;;;;;4993611;28;20038;-44
2022/02/19 04:01:13;;;;;;;11.32;3.03;;;7.00;97.00;;;;;;4993742;28;20022;-44
2022/02/19 04:03:39;;;;;;;13.13;1.92;;;6.90;96.70;;;;;;4993171;28;20426;-45
2022/02/19 04:06:04;;;;;;;8.68;1.95;;;7.00;97.20;;;;;;4992977;28;20026;-40
2022/02/19 04:08:30;;;;;;;5.50;2.08;;;7.00;97.30;;;;;;4993516;28;20398;-43
2022/02/19 04:10:56;;;;;;;7.40;1.80;;;6.90;97.50;;;;;;4993818;28;20035;-45
2022/02/19 04:13:21;;;;;;;8.82;1.75;;;6.90;97.30;;;;;;4993331;28;20030;-46
2022/02/19 04:15:47;;;;;;;13.40;3.20;;;6.80;97.30;;;;;;4993384;28;20034;-44
2022/02/19 04:18:13;;;;;;;5.65;1.80;;;6.80;97.20;;;;;;4993081;28;20022;-45
2022/02/19 04:20:39;;;;;;;11.93;2.10;;;6.80;96.80;;;;;;4993494;28;20505;-44
2022/02/19 04:23:05;;;;;;;3.17;1.33;;;6.80;96.60;;;;;;4993105;28;20022;-45
2022/02/19 04:25:30;;;;;;;8.13;1.77;;;6.80;96.80;;;;;;4993298;28;20038;-46
2022/02/19 04:28:04;;;;;;;5.80;1.55;;;6.80;96.80;;;;;;4993299;28;20474;-44
2022/02/19 04:30:30;;;;;;;9.55;1.70;;;6.70;96.70;;;;;;4993059;28;20077;-43
2022/02/19 04:32:58;;;;;;;6.55;1.63;;;6.70;96.70;;;;;;4993093;28;20279;-45
2022/02/19 04:35:25;;;;;;;9.13;2.05;;;6.70;96.70;;;;;;4993177;28;20478;-44
2022/02/19 04:37:50;;;;;;;9.38;2.13;;;6.70;96.80;;;;;;4992497;28;20038;-47
2022/02/19 04:40:16;;;;;;;12.18;2.08;;;6.70;96.70;;;;;;4993098;28;20026;-39
2022/02/19 04:42:43;;;;;;;8.13;1.77;;;6.70;96.80;;;;;;4993407;28;20081;-44
2022/02/19 04:45:09;;;;;;;9.85;2.30;;;6.70;96.70;;;;;;4992898;28;20398;-46
2022/02/19 04:47:35;;;;;;;6.40;2.45;;;6.80;96.80;;;;;;4994802;28;20022;-48
2022/02/19 04:50:02;;;;;;;5.35;1.60;;;6.80;96.80;;;;;;4993856;28;20022;-47
2022/02/19 04:52:27;;;;;;;13.20;1.73;;;6.80;96.80;;;;;;4992623;28;20094;-40
2022/02/19 04:54:53;;;;;;;9.05;2.03;;;6.80;96.70;;;;;;4992429;28;20497;-48
2022/02/19 04:57:18;;;;;;;11.45;1.85;;;6.70;96.80;;;;;;4992434;28;20026;-46
2022/02/19 04:59:43;;;;;;;9.40;1.85;;;6.70;96.80;;;;;;4992880;28;20076;-48
2022/02/19 05:02:09;;;;;;;9.57;1.95;;;6.60;97.20;;;;;;4992744;28;20375;-48
2022/02/19 05:04:35;;;;;;;11.65;1.77;;;6.60;97.30;;;;;;4992436;28;20022;-42
2022/02/19 05:07:00;;;;;;;11.10;2.28;;;6.50;97.50;;;;;;4992461;28;20034;-46
2022/02/19 05:09:26;;;;;;;15.20;3.03;;;6.40;97.80;;;;;;4993475;28;20049;-44
2022/02/19 05:11:51;;;;;;;8.10;1.70;;;6.40;97.90;;;;;;4994008;28;20097;-48
2022/02/19 05:14:17;;;;;;;9.73;2.03;;;6.40;98.00;;;;;;4992838;28;20038;-41
2022/02/19 05:16:42;;;;;;;10.32;2.15;;;6.30;98.10;;;;;;4992084;28;20029;-48
2022/02/19 05:19:08;;;;;;;8.18;1.92;;;6.30;98.10;;;;;;4975004;28;20121;-48
2022/02/19 05:21:33;;;;;;;10.55;1.92;;;6.30;98.60;;;;;;4992945;28;20018;-49
2022/02/19 05:23:59;;;;;;;11.45;2.03;;;6.20;98.90;;;;;;4992143;28;20082;-45
2022/02/19 05:26:24;;;;;;;5.07;1.95;;;6.20;99.00;;;;;;4992461;28;20030;-40
2022/02/19 05:28:50;;;;;;;7.13;1.73;;;6.10;99.00;;;;;;4992123;28;20501;-47
2022/02/19 05:31:15;;;;;;;10.50;1.80;;;6.10;98.80;;;;;;4992217;28;20080;-49
2022/02/19 05:33:41;;;;;;;13.23;2.10;;;6.10;99.00;;;;;;4991912;28;20028;-47
2022/02/19 05:36:07;;;;;;;11.50;2.15;;;6.10;98.90;;;;;;4992134;28;20087;-45
2022/02/19 05:38:32;;;;;;;3.67;1.70;;;6.10;99.00;;;;;;4991719;28;20054;-42
2022/02/19 05:40:57;;;;;;;4.60;1.65;;;6.10;99.00;;;;;;4992160;28;20018;-46
2022/02/19 05:43:23;;;;;;;11.85;1.77;;;6.10;99.00;;;;;;4991696;28;20035;-45
2022/02/19 05:45:49;;;;;;;10.55;2.00;;;6.10;99.00;;;;;;4991964;28;20015;-47
2022/02/19 05:48:14;;;;;;;9.40;2.05;;;6.10;99.20;;;;;;4992154;28;20027;-47
2022/02/19 05:50:40;;;;;;;12.07;3.20;;;6.00;99.30;;;;;;4992052;28;20066;-47
2022/02/19 05:53:06;;;;;;;15.20;3.17;;;6.00;99.20;;;;;;4991657;28;20050;-44
2022/02/19 05:55:32;;;;;;;7.85;1.85;;;6.00;99.40;;;;;;4992095;28;20058;-44
2022/02/19 05:57:57;;;;;;;16.10;2.00;;;6.00;99.50;;;;;;4991773;28;20474;-49
2022/02/19 06:00:25;;;;;;;8.00;2.00;;;6.00;99.60;;;;;;4992184;28;20356;-46
2022/02/19 06:02:51;;;;;;;7.10;1.70;;;5.90;99.60;;;;;;4991570;28;20504;-48
2022/02/19 06:05:16;;;;;;;6.28;2.55;;;5.90;99.70;;;;;;4992044;28;20097;-44
2022/02/19 06:07:42;;;;;;;13.50;3.60;;;5.90;99.50;;;;;;4991762;28;20026;-43
2022/02/19 06:10:09;;;;;;;6.72;1.70;;;5.90;99.50;;;;;;4991993;28;20027;-46
2022/02/19 06:12:34;;;;;;;10.88;2.00;;;5.90;99.50;;;;;;4991987;28;20031;-39
2022/02/19 06:15:00;;;;;;;7.85;2.17;;;6.00;99.60;;;;;;4991588;28;20077;-45
2022/02/19 06:17:26;;;;;;;6.05;1.85;;;5.90;99.50;;;;;;4991903;28;20034;-47
2022/02/19 06:19:51;;;;;;;11.52;1.73;;;5.90;99.50;;;;;;4991925;28;20044;-44
2022/02/19 06:22:17;;;;;;;10.63;2.17;;;5.90;99.40;;;;;;4991606;28;20394;-44
2022/02/19 06:24:43;;;;;;;7.35;2.53;;;5.90;99.20;;;;;;4991385;28;20038;-42
2022/02/19 06:27:09;;;;;;;8.40;2.03;;;5.90;99.30;;;;;;4991746;28;20066;-45
2022/02/19 06:29:34;;;;;;;14.82;2.05;;;5.90;99.40;;;;;;4994666;28;20026;-44
2022/02/19 06:32:00;;;;;;;8.95;1.58;;;5.90;99.30;;;;;;4995324;28;20474;-43
2022/02/19 06:34:25;;;;;;;16.45;3.70;;;5.90;99.50;;;;;;4995183;28;20030;-41
2022/02/19 06:36:51;;;;;;;4.82;2.55;;;5.90;99.50;;;;;;4994660;28;20554;-46
2022/02/19 06:39:16;;;;;;;7.53;1.60;;;5.90;99.50;;;;;;4995269;28;20045;-49
2022/02/19 06:41:42;;;;;;;10.75;2.05;;;5.90;99.50;;;;;;4995446;28;20494;-45
2022/02/19 06:44:07;;;;;;;11.73;2.10;;;6.00;99.30;;;;;;4994796;28;20029;-44
2022/02/19 06:46:33;;;;;;;9.32;1.80;;;6.00;99.30;;;;;;4995472;28;20023;-41
2022/02/19 06:48:58;;;;;;;9.02;2.58;;;6.10;99.30;;;;;;4994983;28;20058;-46
2022/02/19 06:51:25;;;;;;;10.73;1.75;;;6.10;99.10;;;;;;4995119;28;20069;-46
2022/02/19 06:53:56;;;;;;;11.25;2.90;;;6.10;99.30;;;;;;4994698;28;20018;-47
2022/02/19 06:56:25;;;;;;;6.05;1.77;;;6.00;99.50;;;;;;4994962;28;20037;-47
2022/02/19 06:58:51;;;;;;;8.80;2.40;;;6.00;99.40;;;;;;5045449;22;20045;-45
2022/02/19 07:01:17;;;;;;;11.75;2.28;;;6.00;99.40;;;;;;5034656;28;20049;-47
2022/02/19 07:03:42;;;;;;;21.50;3.25;;;6.00;99.60;;;;;;5033589;28;20076;-45
2022/02/19 07:06:07;;;;;;;6.38;2.00;;;6.00;99.70;;;;;;5034146;28;20041;-45
2022/02/19 07:08:34;;;;;;;6.78;1.65;;;6.00;99.80;;;;;;5032680;28;20040;-45
2022/02/19 07:10:59;;;;;;;11.20;2.60;;;6.00;99.90;;;;;;5034025;28;20686;-46
2022/02/19 07:13:25;;;;;;;11.55;1.92;;;6.00;99.90;;;;;;5032215;28;20023;-46
2022/02/19 07:15:50;;;;;;;6.75;2.70;;;6.00;99.90;;;;;;5034014;28;20382;-49
2022/02/19 07:18:16;;;;;;;9.25;2.05;;;6.00;99.90;;;;;;5033619;28;20038;-45
2022/02/19 07:20:41;;;;;;;11.52;2.45;;;6.00;99.90;;;;;;5032303;28;20022;-45
2022/02/19 07:23:07;;;;;;;10.25;1.40;;;6.10;99.90;;;;;;5032117;28;20024;-45
2022/02/19 07:25:33;;;;;;;7.10;1.80;;;6.20;99.90;;;;;;5032614;28;20029;-48
2022/02/19 07:27:59;;;;;;;8.10;2.08;;;6.30;99.90;;;;;;5032296;28;20036;-45
2022/02/19 07:30:24;;;;;;;11.68;1.85;;;6.40;99.90;;;;;;5032516;28;20489;-47
2022/02/19 07:32:53;;;;;;;9.02;2.22;;;6.60;99.90;;;;;;5032089;28;20032;-46
2022/02/19 07:35:20;;;;;;;8.70;2.20;;;6.70;99.90;;;;;;5033464;28;20036;-45
2022/02/19 07:37:47;;;;;;;8.75;2.08;;;6.60;99.90;;;;;;5031639;28;20037;-45
2022/02/19 07:40:12;;;;;;;12.52;2.17;;;6.50;99.90;;;;;;5032357;28;20030;-47
2022/02/19 07:42:38;;;;;;;7.20;1.98;;;6.50;99.90;;;;;;5031997;28;20132;-49
2022/02/19 07:45:05;;;;;;;7.97;2.42;;;6.50;99.90;;;;;;5031683;28;20022;-45
2022/02/19 07:47:32;;;;;;;9.23;2.25;;;6.40;99.90;;;;;;5033285;28;20346;-45
2022/02/19 07:58:19;;;;;;;5.82;2.17;;;6.40;99.90;;;;;;5033158;28;20335;-45
2022/02/19 08:00:56;;;;;;;8.27;1.70;;;6.40;99.90;;;;;;5033387;28;20405;-46
2022/02/19 08:03:23;;;;;;;12.95;2.40;;;6.40;99.90;;;;;;5032855;28;20040;-45
2022/02/19 08:05:50;;;;;;;12.52;3.88;;;6.40;99.90;;;;;;5033598;28;20021;-47
2022/02/19 08:08:17;;;;;;;11.15;3.50;;;6.40;99.90;;;;;;5032844;28;20048;-47
2022/02/19 08:10:43;;;;;;;15.70;3.42;;;6.40;99.90;;;;;;5032953;28;20017;-46
2022/02/19 08:13:09;;;;;;;10.07;2.35;;;6.50;99.90;;;;;;5031364;28;20544;-45
2022/02/19 08:15:36;;;;;;;9.80;2.17;;;6.50;99.90;;;;;;5033245;28;20030;-46
2022/02/19 08:18:02;;;;;;;14.57;2.70;;;6.50;99.90;;;;;;5032708;28;20029;-51
2022/02/19 08:20:30;;;;;;;11.10;2.30;;;6.50;99.90;;;;;;5033854;28;20035;-48
2022/02/19 08:22:55;;;;;;;11.13;2.25;;;6.50;99.90;;;;;;5031090;28;20026;-47
2022/02/19 08:25:21;;;;;;;13.18;2.10;;;6.50;99.90;;;;;;5032357;28;20421;-46
2022/02/19 08:27:46;;;;;;;9.63;2.08;;;6.60;99.90;;;;;;5032681;28;20056;-49
2022/02/19 08:30:12;;;;;;;6.78;2.08;;;6.60;99.90;;;;;;5032514;28;20028;-49
2022/02/19 08:32:37;;;;;;;10.13;2.17;;;6.60;99.90;;;;;;5032292;28;20501;-50
2022/02/19 08:35:03;;;;;;;11.52;2.40;;;6.60;99.90;;;;;;5032219;28;20060;-46
2022/02/19 08:37:31;;;;;;;7.30;1.98;;;6.60;99.90;;;;;;5014028;28;20026;-47
2022/02/19 08:39:57;;;;;;;26.88;2.58;;;6.70;99.90;;;;;;5032152;28;20053;-47
2022/02/19 08:42:23;;;;;;;9.60;1.77;;;6.80;99.90;;;;;;5031966;28;20056;-46
2022/02/19 08:44:48;;;;;;;14.13;2.38;;;6.80;99.80;;;;;;5031725;28;20032;-47
2022/02/19 08:47:14;;;;;;;7.70;1.90;;;6.80;99.80;;;;;;5031821;28;20050;-46
2022/02/19 08:49:39;;;;;;;8.48;1.80;;;6.80;99.60;;;;;;5031832;28;20075;-45
2022/02/19 08:52:05;;;;;;;12.73;2.22;;;6.80;99.00;;;;;;5031791;28;20057;-44
2022/02/19 08:54:31;;;;;;;15.20;2.50;;;6.80;99.10;;;;;;5030562;28;20021;-44
2022/02/19 08:56:56;;;;;;;11.20;2.80;;;6.90;99.30;;;;;;5030804;28;20021;-48
2022/02/19 08:59:22;;;;;;;6.65;2.22;;;6.90;99.10;;;;;;5031635;28;20399;-46
2022/02/19 09:01:47;;;;;;;12.10;2.38;;;7.00;99.20;;;;;;5032101;28;20040;-44
2022/02/19 09:04:14;;;;;;;7.80;2.47;;;7.10;99.30;;;;;;5026371;28;20048;-46
2022/02/19 09:06:39;;;;;;;10.68;2.33;;;7.00;98.60;;;;;;5022336;28;20034;-47
2022/02/19 09:09:06;;;;;;;12.93;2.58;;;7.00;98.70;;;;;;5019999;28;20033;-45
2022/02/19 09:11:33;;;;;;;9.18;2.13;;;7.00;99.20;;;;;;5012045;28;20058;-48
2022/02/19 09:13:58;;;;;;;10.43;2.85;;;7.20;99.00;;;;;;5029884;28;20029;-49
2022/02/19 09:16:26;;;;;;;9.73;2.00;;;7.20;98.90;;;;;;5031619;28;20105;-45
2022/02/19 09:18:52;;;;;;;13.23;2.00;;;7.20;98.00;;;;;;5030286;28;20424;-49
2022/02/19 09:21:17;;;;;;;9.57;2.28;;;7.20;97.50;;;;;;5030486;28;20072;-48
2022/02/19 09:23:43;;;;;;;11.27;2.58;;;7.20;98.10;;;;;;5025995;28;20025;-48
2022/02/19 09:26:08;;;;;;;8.73;2.15;;;7.30;98.40;;;;;;5021222;28;20088;-44
2022/02/19 09:28:34;;;;;;;9.25;1.92;;;7.70;98.20;;;;;;5013986;28;20038;-45
2022/02/19 09:31:00;;;;;;;7.22;1.33;;;8.70;96.10;;;;;;5030672;28;20029;-48
2022/02/19 09:33:26;;;;;;;7.32;1.85;;;9.80;93.00;;;;;;5029423;28;20029;-46
2022/02/19 09:35:52;;;;;;;8.02;2.25;;;10.40;91.10;;;;;;5030348;28;20025;-46
2022/02/19 09:38:19;;;;;;;10.60;1.77;;;10.70;90.30;;;;;;5030864;28;20033;-46
2022/02/19 09:40:45;;;;;;;7.82;1.80;;;11.10;90.00;;;;;;5031315;28;20100;-46
2022/02/19 09:43:11;;;;;;;10.30;1.90;;;11.30;89.40;;;;;;5030991;28;20045;-48
2022/02/19 09:45:37;;;;;;;9.75;2.53;;;11.30;87.80;;;;;;5031205;28;20021;-45
2022/02/19 09:48:08;;;;;;;6.18;1.77;;;11.30;85.90;;;;;;5028976;28;20580;-49
2022/02/19 09:50:34;;;;;;;6.40;2.20;;;11.80;84.80;;;;;;5030319;28;20024;-49
2022/02/19 09:53:04;;;;;;;8.05;2.35;;;11.80;81.90;;;;;;5029705;28;20042;-47
2022/02/19 09:55:29;;;;;;;9.15;2.00;;;11.60;83.70;;;;;;5030748;28;20029;-45
2022/02/19 09:57:55;;;;;;;8.75;2.00;;;11.10;85.00;;;;;;5030151;28;20386;-46
2022/02/19 10:00:39;;;;;;;7.75;1.90;;;11.00;85.10;;;;;;5031034;28;20036;-48
2022/02/19 10:03:11;;;;;;;8.60;2.45;;;11.50;84.90;;;;;;5031264;28;20032;-50
2022/02/19 10:05:37;;;;;;;9.55;2.20;;;12.00;82.00;;;;;;5035390;28;20028;-46
2022/02/19 10:08:06;;;;;;;6.90;1.80;;;11.70;79.80;;;;;;5035086;28;20029;-46
2022/02/19 10:10:37;;;;;;;8.15;2.03;;;11.30;82.90;;;;;;5035008;28;20045;-46
2022/02/19 10:13:03;;;;;;;5.40;1.63;;;11.60;82.80;;;;;;5034649;28;20080;-46
2022/02/19 10:15:49;;;;;;;9.85;1.77;;;11.80;79.60;;;;;;5035075;28;20065;-45
2022/02/19 10:18:44;;;;;;;4.82;1.75;;;11.70;81.10;;;;;;5034877;28;20026;-47
2022/02/19 10:21:16;;;;;;;5.28;2.10;;;12.10;80.90;;;;;;5022164;28;20033;-46
2022/02/19 10:23:49;;;;;;;5.82;1.73;;;11.40;80.60;;;;;;5034648;28;20100;-48
2022/02/19 10:26:19;;;;;;;9.93;1.80;;;11.00;82.40;;;;;;5034707;28;20049;-47
2022/02/19 10:29:02;;;;;;;6.63;1.60;;;10.30;85.10;;;;;;5031277;28;20422;-45
2022/02/19 10:31:28;;;;;;;4.75;1.60;;;10.10;85.80;;;;;;5024523;28;20044;-49
2022/02/19 10:34:07;;;;;;;4.50;1.75;;;10.20;87.00;;;;;;5034376;28;20030;-45
2022/02/19 10:36:43;;;;;;;8.43;1.90;;;10.50;85.00;;;;;;5034739;28;20033;-45
2022/02/19 10:39:08;;;;;;;8.00;1.92;;;10.70;83.50;;;;;;5034394;28;20033;-48
2022/02/19 10:41:39;;;;;;;8.80;1.85;;;10.20;85.40;;;;;;5034288;28;20035;-44
2022/02/19 10:44:32;;;;;;;7.85;2.00;;;9.70;85.50;;;;;;5034366;28;20018;-44
2022/02/19 10:47:18;;;;;;;9.02;2.08;;;9.20;87.60;;;;;;5034007;28;20016;-45
2022/02/19 10:50:22;;;;;;;5.45;1.63;;;9.00;88.70;;;;;;5021261;28;20021;-42
2022/02/19 10:52:55;;;;;;;7.72;1.70;;;9.20;90.20;;;;;;5005283;28;20289;-44
2022/02/19 10:55:28;;;;;;;10.63;2.03;;;9.20;90.10;;;;;;5001580;28;20555;-46
2022/02/19 10:57:59;;;;;;;6.93;1.77;;;9.10;91.30;;;;;;5022609;28;20045;-47
2022/02/19 11:00:25;;;;;;;7.95;2.03;;;9.00;92.10;;;;;;5033663;28;20025;-44
2022/02/19 11:02:52;;;;;;;8.55;2.17;;;8.90;92.30;;;;;;5032210;28;20025;-43
2022/02/19 11:05:19;;;;;;;8.55;1.75;;;8.80;91.60;;;;;;5032778;28;20029;-44
2022/02/19 11:07:46;;;;;;;7.07;1.98;;;8.70;92.10;;;;;;5033654;28;20067;-45
2022/02/19 11:10:21;;;;;;;6.75;1.35;;;8.70;91.60;;;;;;5034152;28;20024;-44
2022/02/19 11:12:48;;;;;;;12.52;1.73;;;8.60;91.90;;;;;;5029231;28;20427;-43
2022/02/19 11:15:15;;;;;;;4.80;1.42;;;8.70;92.30;;;;;;5034104;28;20029;-47
2022/02/19 11:17:41;;;;;;;4.90;1.58;;;8.90;92.00;;;;;;5034063;28;20021;-45
2022/02/19 11:20:10;;;;;;;12.73;2.35;;;9.10;91.80;;;;;;5065883;28;20027;-45
2022/02/19 11:22:37;;;;;;;16.58;2.17;;;9.10;91.10;;;;;;5033600;28;20025;-44
2022/02/19 11:25:06;;;;;;;10.82;1.83;;;9.20;91.80;;;;;;5040000;28;20025;-44
2022/02/19 11:27:51;;;;;;;7.45;2.40;;;9.40;91.50;;;;;;5050735;28;20079;-44
2022/02/19 11:30:16;;;;;;;15.05;1.75;;;9.40;90.70;;;;;;5025137;28;20050;-44
2022/02/19 11:32:43;;;;;;;8.90;1.83;;;9.40;91.10;;;;;;5013935;28;20105;-46
2022/02/19 11:35:10;;;;;;;6.30;2.30;;;9.30;91.10;;;;;;5027986;28;20025;-44
2022/02/19 11:37:43;;;;;;;8.43;1.38;;;9.20;92.00;;;;;;5039540;28;20179;-44
2022/02/19 11:40:10;;;;;;;5.25;1.90;;;9.10;92.10;;;;;;5027420;28;20037;-47
2022/02/19 11:42:40;;;;;;;7.95;1.80;;;9.20;92.60;;;;;;5025682;28;20022;-43
2022/02/19 11:45:26;;;;;;;7.75;1.60;;;9.20;93.20;;;;;;5029565;28;20018;-43
2022/02/19 11:48:02;;;;;;;6.70;1.67;;;9.10;92.70;;;;;;5029199;28;20053;-44
2022/02/19 11:50:30;;;;;;;11.38;2.95;;;9.00;92.80;;;;;;5032232;28;20094;-46
2022/02/19 11:53:10;;;;;;;9.52;2.17;;;8.90;93.00;;;;;;5032671;28;20032;-45
2022/02/19 11:55:41;;;;;;;8.20;2.08;;;9.00;93.40;;;;;;5033106;28;20021;-46
2022/02/19 11:58:11;;;;;;;6.80;2.13;;;9.10;93.60;;;;;;5032706;28;20026;-45
2022/02/19 12:00:46;;;;;;;14.13;4.32;;;9.00;93.80;;;;;;5033037;28;20421;-45
2022/02/19 12:03:26;;;;;;;13.10;1.73;;;9.00;94.70;;;;;;5032802;28;20021;-45
2022/02/19 12:06:15;;;;;;;8.80;2.40;;;8.90;93.70;;;;;;5032839;28;20489;-46
2022/02/19 12:08:47;;;;;;;10.82;1.65;;;8.90;93.80;;;;;;5023592;28;20034;-47
2022/02/19 12:11:13;;;;;;;4.68;1.40;;;9.00;93.80;;;;;;5026091;28;20079;-46
2022/02/19 12:13:50;;;;;;;10.40;2.15;;;9.10;93.40;;;;;;5026796;28;20099;-47
2022/02/19 12:16:31;;;;;;;8.32;1.73;;;9.10;93.00;;;;;;5031217;28;20029;-44
2022/02/19 12:19:06;;;;;;;6.38;1.42;;;9.10;93.50;;;;;;5032486;28;20030;-47
2022/02/19 12:21:37;;;;;;;8.77;2.40;;;9.10;92.90;;;;;;5032562;28;20420;-48
2022/02/19 12:24:12;;;;;;;13.38;2.10;;;9.00;93.60;;;;;;5033074;28;20401;-45
2022/02/19 12:26:56;;;;;;;;;;;9.00;93.30;;;;;;5032709;28;20025;-45
2022/02/19 12:29:33;;;;;;;13.50;3.85;;;8.90;93.50;;;;;;5031206;28;19932;-50
2022/02/19 12:32:22;;;;;;;5.13;1.48;;;9.00;93.40;;;;;;5032615;28;20021;-45
2022/02/19 12:34:54;;;;;;;4.20;1.42;;;9.10;93.40;;;;;;5026822;28;20083;-45
2022/02/19 12:37:20;;;;;;;6.68;1.85;;;9.10;93.20;;;;;;5032297;28;20385;-45
2022/02/19 12:39:48;;;;;;;8.77;2.00;;;9.00;93.10;;;;;;5032365;28;20034;-44
2022/02/19 12:42:22;;;;;;;4.90;1.48;;;9.00;93.80;;;;;;5032183;28;20021;-44
2022/02/19 12:44:59;;;;;;;5.45;1.60;;;9.00;92.90;;;;;;5023785;28;20307;-46
2022/02/19 12:47:24;;;;;;;11.23;3.08;;;9.00;93.10;;;;;;5031575;28;20507;-44
2022/02/19 12:49:50;;;;;;;5.57;1.67;;;9.00;93.40;;;;;;5031716;28;20037;-44
2022/02/19 12:52:15;;;;;;;5.72;1.92;;;9.10;92.70;;;;;;5032102;28;20029;-46
2022/02/19 12:54:43;;;;;;;7.32;1.65;;;9.00;92.50;;;;;;5031278;28;20036;-47
2022/02/19 12:57:10;;;;;;;8.10;1.45;;;8.90;93.00;;;;;;5031511;28;20029;-44
2022/02/19 12:59:37;;;;;;;9.20;1.65;;;8.90;93.20;;;;;;5046959;28;20029;-46
2022/02/19 13:02:09;;;;;;;9.73;1.75;;;8.80;93.40;;;;;;5032413;28;20026;-46